sensor_id;sensor_type;location;lat;lon;timestamp;P1;durP1;ratioP1;P2;durP2;ratioP2
10523;SDS011;5310;48.638;9.060;2024-02-21T00:01:02;1.10;;;1.10;;
10523;SDS011;5310;48.638;9.060;2024-02-21T00:03:29;1.10;;;1.10;;
10523;SDS011;5310;48.638;9.060;2024-02-21T00:05:55;1.10;;;1.10;;
10523;SDS011;5310;48.638;9.060;2024-02-21T00:08:21;1.00;;;1.00;;
10523;SDS011;5310;48.638;9.060;2024-02-21T00:10:47;1.00;;;1.00;;
10523;SDS011;5310;48.638;9.060;2024-02-21T00:13:13;0.90;;;0.90;;
10523;SDS011;5310;48.638;9.060;2024-02-21T00:15:39;1.00;;;1.00;;
10523;SDS011;5310;48.638;9.060;2024-02-21T00:18:05;1.10;;;1.10;;
10523;SDS011;5310;48.638;9.060;2024-02-21T00:20:31;1.00;;;1.00;;
10523;SDS011;5310;48.638;9.060;2024-02-21T00:22:57;1.10;;;1.10;;
10523;SDS011;5310;48.638;9.060;2024-02-21T00:25:23;1.00;;;1.00;;
10523;SDS011;5310;48.638;9.060;2024-02-21T00:27:49;1.00;;;1.00;;
10523;SDS011;5310;48.638;9.060;2024-02-21T00:30:15;1.10;;;1.10;;
10523;SDS011;5310;48.638;9.060;2024-02-21T00:32:41;1.13;;;1.10;;
10523;SDS011;5310;48.638;9.060;2024-02-21T00:35:07;1.00;;;1.00;;
10523;SDS011;5310;48.638;9.060;2024-02-21T00:37:33;1.00;;;1.00;;
10523;SDS011;5310;48.638;9.060;2024-02-21T00:39:59;1.00;;;1.00;;
10523;SDS011;5310;48.638;9.060;2024-02-21T00:42:24;1.10;;;1.10;;
10523;SDS011;5310;48.638;9.060;2024-02-21T00:44:50;1.10;;;1.10;;
10523;SDS011;5310;48.638;9.060;2024-02-21T00:47:16;1.10;;;1.10;;
10523;SDS011;5310;48.638;9.060;2024-02-21T00:49:42;1.00;;;1.00;;
10523;SDS011;5310;48.638;9.060;2024-02-21T00:52:08;1.10;;;1.10;;
10523;SDS011;5310;48.638;9.060;2024-02-21T00:54:34;1.10;;;1.10;;
10523;SDS011;5310;48.638;9.060;2024-02-21T00:57:00;1.10;;;1.10;;
10523;SDS011;5310;48.638;9.060;2024-02-21T00:59:26;1.10;;;1.10;;
10523;SDS011;5310;48.638;9.060;2024-02-21T01:01:52;1.00;;;1.00;;
10523;SDS011;5310;48.638;9.060;2024-02-21T01:04:18;1.00;;;1.00;;
10523;SDS011;5310;48.638;9.060;2024-02-21T01:06:44;1.10;;;1.10;;
10523;SDS011;5310;48.638;9.060;2024-02-21T01:09:13;1.00;;;1.00;;
10523;SDS011;5310;48.638;9.060;2024-02-21T01:11:39;1.10;;;1.10;;
10523;SDS011;5310;48.638;9.060;2024-02-21T01:14:05;1.10;;;1.10;;
10523;SDS011;5310;48.638;9.060;2024-02-21T01:16:31;1.10;;;1.10;;
10523;SDS011;5310;48.638;9.060;2024-02-21T01:18:57;1.10;;;1.10;;
10523;SDS011;5310;48.638;9.060;2024-02-21T01:21:23;1.10;;;1.10;;
10523;SDS011;5310;48.638;9.060;2024-02-21T01:23:49;1.00;;;1.00;;
10523;SDS011;5310;48.638;9.060;2024-02-21T01:26:15;1.10;;;1.10;;
10523;SDS011;5310;48.638;9.060;2024-02-21T01:28:41;1.10;;;1.10;;
10523;SDS011;5310;48.638;9.060;2024-02-21T01:31:07;1.00;;;1.00;;
10523;SDS011;5310;48.638;9.060;2024-02-21T01:33:33;1.10;;;1.10;;
10523;SDS011;5310;48.638;9.060;2024-02-21T01:36:04;1.10;;;1.10;;
10523;SDS011;5310;48.638;9.060;2024-02-21T01:38:32;1.00;;;1.00;;
10523;SDS011;5310;48.638;9.060;2024-02-21T01:40:58;1.07;;;1.07;;
10523;SDS011;5310;48.638;9.060;2024-02-21T01:43:24;1.10;;;1.10;;
10523;SDS011;5310;48.638;9.060;2024-02-21T01:45:52;1.10;;;1.10;;
10523;SDS011;5310;48.638;9.060;2024-02-21T01:48:18;1.10;;;1.10;;
10523;SDS011;5310;48.638;9.060;2024-02-21T01:50:45;1.00;;;1.00;;
10523;SDS011;5310;48.638;9.060;2024-02-21T01:53:12;1.10;;;1.10;;
10523;SDS011;5310;48.638;9.060;2024-02-21T01:55:44;1.00;;;1.00;;
10523;SDS011;5310;48.638;9.060;2024-02-21T01:58:10;1.10;;;1.10;;
10523;SDS011;5310;48.638;9.060;2024-02-21T02:00:37;1.10;;;1.10;;
10523;SDS011;5310;48.638;9.060;2024-02-21T02:03:05;1.00;;;1.00;;
10523;SDS011;5310;48.638;9.060;2024-02-21T02:05:31;1.07;;;1.07;;
10523;SDS011;5310;48.638;9.060;2024-02-21T02:07:58;1.10;;;1.10;;
10523;SDS011;5310;48.638;9.060;2024-02-21T02:10:24;1.10;;;1.10;;
10523;SDS011;5310;48.638;9.060;2024-02-21T02:12:50;1.10;;;1.10;;
10523;SDS011;5310;48.638;9.060;2024-02-21T02:15:15;1.10;;;1.10;;
10523;SDS011;5310;48.638;9.060;2024-02-21T02:17:41;1.10;;;1.10;;
10523;SDS011;5310;48.638;9.060;2024-02-21T02:20:07;1.10;;;1.10;;
10523;SDS011;5310;48.638;9.060;2024-02-21T02:22:33;1.10;;;1.10;;
10523;SDS011;5310;48.638;9.060;2024-02-21T02:25:03;1.00;;;1.00;;
10523;SDS011;5310;48.638;9.060;2024-02-21T02:27:29;1.10;;;1.10;;
10523;SDS011;5310;48.638;9.060;2024-02-21T02:29:55;1.10;;;1.10;;
10523;SDS011;5310;48.638;9.060;2024-02-21T02:32:21;1.10;;;1.10;;
10523;SDS011;5310;48.638;9.060;2024-02-21T02:34:47;1.10;;;1.10;;
10523;SDS011;5310;48.638;9.060;2024-02-21T02:37:12;1.10;;;1.10;;
10523;SDS011;5310;48.638;9.060;2024-02-21T02:39:38;1.10;;;1.10;;
10523;SDS011;5310;48.638;9.060;2024-02-21T02:42:04;1.10;;;1.10;;
10523;SDS011;5310;48.638;9.060;2024-02-21T02:44:30;1.10;;;1.10;;
10523;SDS011;5310;48.638;9.060;2024-02-21T02:46:57;1.10;;;1.10;;
10523;SDS011;5310;48.638;9.060;2024-02-21T02:49:22;1.00;;;1.00;;
10523;SDS011;5310;48.638;9.060;2024-02-21T02:51:48;1.10;;;1.10;;
10523;SDS011;5310;48.638;9.060;2024-02-21T02:54:14;1.10;;;1.10;;
10523;SDS011;5310;48.638;9.060;2024-02-21T02:56:40;1.00;;;1.00;;
10523;SDS011;5310;48.638;9.060;2024-02-21T02:59:06;1.00;;;1.00;;
10523;SDS011;5310;48.638;9.060;2024-02-21T03:01:35;1.00;;;1.00;;
10523;SDS011;5310;48.638;9.060;2024-02-21T03:04:01;1.10;;;1.10;;
10523;SDS011;5310;48.638;9.060;2024-02-21T03:06:27;1.00;;;1.00;;
10523;SDS011;5310;48.638;9.060;2024-02-21T03:08:53;1.00;;;1.00;;
10523;SDS011;5310;48.638;9.060;2024-02-21T03:11:19;1.10;;;1.10;;
10523;SDS011;5310;48.638;9.060;2024-02-21T03:13:48;1.10;;;1.10;;
10523;SDS011;5310;48.638;9.060;2024-02-21T03:16:16;1.10;;;1.10;;
10523;SDS011;5310;48.638;9.060;2024-02-21T03:18:42;1.00;;;1.00;;
10523;SDS011;5310;48.638;9.060;2024-02-21T03:21:08;1.10;;;1.10;;
10523;SDS011;5310;48.638;9.060;2024-02-21T03:23:34;1.07;;;1.07;;
10523;SDS011;5310;48.638;9.060;2024-02-21T03:26:00;1.00;;;1.00;;
10523;SDS011;5310;48.638;9.060;2024-02-21T03:28:26;1.10;;;1.10;;
10523;SDS011;5310;48.638;9.060;2024-02-21T03:30:52;1.10;;;1.10;;
10523;SDS011;5310;48.638;9.060;2024-02-21T03:33:17;1.00;;;1.00;;
10523;SDS011;5310;48.638;9.060;2024-02-21T03:35:45;1.00;;;1.00;;
10523;SDS011;5310;48.638;9.060;2024-02-21T03:38:11;1.00;;;1.00;;
10523;SDS011;5310;48.638;9.060;2024-02-21T03:40:37;1.00;;;1.00;;
10523;SDS011;5310;48.638;9.060;2024-02-21T03:43:03;1.10;;;1.10;;
10523;SDS011;5310;48.638;9.060;2024-02-21T03:45:29;1.10;;;1.10;;
10523;SDS011;5310;48.638;9.060;2024-02-21T03:47:55;1.00;;;1.00;;
10523;SDS011;5310;48.638;9.060;2024-02-21T03:50:21;1.00;;;1.00;;
10523;SDS011;5310;48.638;9.060;2024-02-21T03:52:47;1.10;;;1.10;;
10523;SDS011;5310;48.638;9.060;2024-02-21T03:55:12;1.07;;;1.07;;
10523;SDS011;5310;48.638;9.060;2024-02-21T03:57:38;1.10;;;1.10;;
10523;SDS011;5310;48.638;9.060;2024-02-21T04:00:04;1.00;;;1.00;;
10523;SDS011;5310;48.638;9.060;2024-02-21T04:02:35;1.10;;;1.10;;
10523;SDS011;5310;48.638;9.060;2024-02-21T04:05:01;1.10;;;1.10;;
10523;SDS011;5310;48.638;9.060;2024-02-21T04:07:27;1.00;;;1.00;;
10523;SDS011;5310;48.638;9.060;2024-02-21T04:09:53;1.10;;;1.10;;
10523;SDS011;5310;48.638;9.060;2024-02-21T04:12:19;1.10;;;1.10;;
10523;SDS011;5310;48.638;9.060;2024-02-21T04:14:45;1.00;;;1.00;;
10523;SDS011;5310;48.638;9.060;2024-02-21T04:17:11;1.00;;;1.00;;
10523;SDS011;5310;48.638;9.060;2024-02-21T04:19:37;1.10;;;1.10;;
10523;SDS011;5310;48.638;9.060;2024-02-21T04:22:03;1.10;;;1.10;;
10523;SDS011;5310;48.638;9.060;2024-02-21T04:24:29;1.00;;;1.00;;
10523;SDS011;5310;48.638;9.060;2024-02-21T04:26:55;1.10;;;1.10;;
10523;SDS011;5310;48.638;9.060;2024-02-21T04:29:21;1.00;;;1.00;;
10523;SDS011;5310;48.638;9.060;2024-02-21T04:31:47;1.10;;;1.10;;
10523;SDS011;5310;48.638;9.060;2024-02-21T04:34:13;1.10;;;1.10;;
10523;SDS011;5310;48.638;9.060;2024-02-21T04:36:39;1.10;;;1.10;;
10523;SDS011;5310;48.638;9.060;2024-02-21T04:39:05;1.00;;;1.00;;
10523;SDS011;5310;48.638;9.060;2024-02-21T04:41:31;1.10;;;1.10;;
10523;SDS011;5310;48.638;9.060;2024-02-21T04:43:57;1.10;;;1.10;;
10523;SDS011;5310;48.638;9.060;2024-02-21T04:46:23;1.00;;;1.00;;
10523;SDS011;5310;48.638;9.060;2024-02-21T04:48:49;1.10;;;1.10;;
10523;SDS011;5310;48.638;9.060;2024-02-21T04:51:15;1.00;;;1.00;;
10523;SDS011;5310;48.638;9.060;2024-02-21T04:53:41;1.10;;;1.10;;
10523;SDS011;5310;48.638;9.060;2024-02-21T04:56:07;1.10;;;1.10;;
10523;SDS011;5310;48.638;9.060;2024-02-21T04:58:33;1.10;;;1.10;;
10523;SDS011;5310;48.638;9.060;2024-02-21T05:00:59;1.10;;;1.10;;
10523;SDS011;5310;48.638;9.060;2024-02-21T05:03:25;1.10;;;1.10;;
10523;SDS011;5310;48.638;9.060;2024-02-21T05:05:51;1.10;;;1.10;;
10523;SDS011;5310;48.638;9.060;2024-02-21T05:08:17;1.10;;;1.10;;
10523;SDS011;5310;48.638;9.060;2024-02-21T05:10:42;1.10;;;1.10;;
10523;SDS011;5310;48.638;9.060;2024-02-21T05:13:08;1.10;;;1.10;;
10523;SDS011;5310;48.638;9.060;2024-02-21T05:15:34;1.10;;;1.10;;
10523;SDS011;5310;48.638;9.060;2024-02-21T05:18:00;1.10;;;1.10;;
10523;SDS011;5310;48.638;9.060;2024-02-21T05:20:26;1.10;;;1.10;;
10523;SDS011;5310;48.638;9.060;2024-02-21T05:22:52;1.00;;;1.00;;
10523;SDS011;5310;48.638;9.060;2024-02-21T05:25:18;1.10;;;1.10;;
10523;SDS011;5310;48.638;9.060;2024-02-21T05:27:44;1.10;;;1.10;;
10523;SDS011;5310;48.638;9.060;2024-02-21T05:30:11;1.10;;;1.10;;
10523;SDS011;5310;48.638;9.060;2024-02-21T05:32:37;1.10;;;1.10;;
10523;SDS011;5310;48.638;9.060;2024-02-21T05:35:03;1.10;;;1.10;;
10523;SDS011;5310;48.638;9.060;2024-02-21T05:37:29;1.10;;;1.10;;
10523;SDS011;5310;48.638;9.060;2024-02-21T05:39:55;1.00;;;1.00;;
10523;SDS011;5310;48.638;9.060;2024-02-21T05:42:21;1.10;;;1.10;;
10523;SDS011;5310;48.638;9.060;2024-02-21T05:44:47;1.10;;;1.10;;
10523;SDS011;5310;48.638;9.060;2024-02-21T05:47:13;1.10;;;1.10;;
10523;SDS011;5310;48.638;9.060;2024-02-21T05:49:40;1.10;;;1.10;;
10523;SDS011;5310;48.638;9.060;2024-02-21T05:52:06;1.10;;;1.10;;
10523;SDS011;5310;48.638;9.060;2024-02-21T05:54:32;1.10;;;1.10;;
10523;SDS011;5310;48.638;9.060;2024-02-21T05:56:58;1.10;;;1.10;;
10523;SDS011;5310;48.638;9.060;2024-02-21T05:59:24;1.10;;;1.10;;
10523;SDS011;5310;48.638;9.060;2024-02-21T06:01:56;1.10;;;1.10;;
10523;SDS011;5310;48.638;9.060;2024-02-21T06:04:22;1.10;;;1.10;;
10523;SDS011;5310;48.638;9.060;2024-02-21T06:06:48;1.10;;;1.10;;
10523;SDS011;5310;48.638;9.060;2024-02-21T06:09:14;1.10;;;1.10;;
10523;SDS011;5310;48.638;9.060;2024-02-21T06:11:40;1.10;;;1.10;;
10523;SDS011;5310;48.638;9.060;2024-02-21T06:14:06;1.10;;;1.10;;
10523;SDS011;5310;48.638;9.060;2024-02-21T06:16:32;1.10;;;1.10;;
10523;SDS011;5310;48.638;9.060;2024-02-21T06:18:58;1.10;;;1.10;;
10523;SDS011;5310;48.638;9.060;2024-02-21T06:21:28;1.10;;;1.10;;
10523;SDS011;5310;48.638;9.060;2024-02-21T06:23:54;1.10;;;1.10;;
10523;SDS011;5310;48.638;9.060;2024-02-21T06:26:20;1.10;;;1.10;;
10523;SDS011;5310;48.638;9.060;2024-02-21T06:28:46;1.10;;;1.10;;
10523;SDS011;5310;48.638;9.060;2024-02-21T06:31:12;1.10;;;1.10;;
10523;SDS011;5310;48.638;9.060;2024-02-21T06:33:38;1.10;;;1.10;;
10523;SDS011;5310;48.638;9.060;2024-02-21T06:36:04;1.10;;;1.10;;
10523;SDS011;5310;48.638;9.060;2024-02-21T06:38:30;1.10;;;1.10;;
10523;SDS011;5310;48.638;9.060;2024-02-21T06:40:56;1.10;;;1.10;;
10523;SDS011;5310;48.638;9.060;2024-02-21T06:43:23;1.10;;;1.10;;
10523;SDS011;5310;48.638;9.060;2024-02-21T06:45:49;1.10;;;1.10;;
10523;SDS011;5310;48.638;9.060;2024-02-21T06:48:16;1.10;;;1.10;;
10523;SDS011;5310;48.638;9.060;2024-02-21T06:50:42;1.10;;;1.10;;
10523;SDS011;5310;48.638;9.060;2024-02-21T06:53:08;1.10;;;1.10;;
10523;SDS011;5310;48.638;9.060;2024-02-21T06:55:34;1.10;;;1.10;;
10523;SDS011;5310;48.638;9.060;2024-02-21T06:58:00;1.10;;;1.10;;
10523;SDS011;5310;48.638;9.060;2024-02-21T07:00:27;1.10;;;1.10;;
10523;SDS011;5310;48.638;9.060;2024-02-21T07:02:53;1.10;;;1.10;;
10523;SDS011;5310;48.638;9.060;2024-02-21T07:05:19;1.10;;;1.10;;
10523;SDS011;5310;48.638;9.060;2024-02-21T07:07:45;1.10;;;1.10;;
10523;SDS011;5310;48.638;9.060;2024-02-21T07:10:11;1.03;;;1.03;;
10523;SDS011;5310;48.638;9.060;2024-02-21T07:12:37;1.10;;;1.10;;
10523;SDS011;5310;48.638;9.060;2024-02-21T07:15:06;1.10;;;1.10;;
10523;SDS011;5310;48.638;9.060;2024-02-21T07:17:32;1.10;;;1.10;;
10523;SDS011;5310;48.638;9.060;2024-02-21T07:19:58;1.00;;;1.00;;
10523;SDS011;5310;48.638;9.060;2024-02-21T07:22:24;1.10;;;1.10;;
10523;SDS011;5310;48.638;9.060;2024-02-21T07:24:50;1.10;;;1.10;;
10523;SDS011;5310;48.638;9.060;2024-02-21T07:27:16;1.10;;;1.10;;
10523;SDS011;5310;48.638;9.060;2024-02-21T07:29:42;1.10;;;1.10;;
10523;SDS011;5310;48.638;9.060;2024-02-21T07:32:12;1.10;;;1.10;;
10523;SDS011;5310;48.638;9.060;2024-02-21T07:34:38;1.10;;;1.10;;
10523;SDS011;5310;48.638;9.060;2024-02-21T07:37:04;1.10;;;1.10;;
10523;SDS011;5310;48.638;9.060;2024-02-21T07:39:30;1.10;;;1.10;;
10523;SDS011;5310;48.638;9.060;2024-02-21T07:41:56;1.00;;;1.00;;
10523;SDS011;5310;48.638;9.060;2024-02-21T07:44:22;1.10;;;1.10;;
10523;SDS011;5310;48.638;9.060;2024-02-21T07:46:48;1.10;;;1.10;;
10523;SDS011;5310;48.638;9.060;2024-02-21T07:49:14;1.07;;;1.07;;
10523;SDS011;5310;48.638;9.060;2024-02-21T07:51:39;1.00;;;1.00;;
10523;SDS011;5310;48.638;9.060;2024-02-21T07:54:07;1.10;;;1.10;;
10523;SDS011;5310;48.638;9.060;2024-02-21T07:56:33;1.00;;;1.00;;
10523;SDS011;5310;48.638;9.060;2024-02-21T07:58:59;1.10;;;1.10;;
10523;SDS011;5310;48.638;9.060;2024-02-21T08:01:25;1.10;;;1.10;;
10523;SDS011;5310;48.638;9.060;2024-02-21T08:03:50;1.10;;;1.10;;
10523;SDS011;5310;48.638;9.060;2024-02-21T08:06:16;1.10;;;1.10;;
10523;SDS011;5310;48.638;9.060;2024-02-21T08:08:42;1.10;;;1.10;;
10523;SDS011;5310;48.638;9.060;2024-02-21T08:11:08;1.00;;;1.00;;
10523;SDS011;5310;48.638;9.060;2024-02-21T08:13:34;1.00;;;1.00;;
10523;SDS011;5310;48.638;9.060;2024-02-21T08:16:00;1.00;;;1.00;;
10523;SDS011;5310;48.638;9.060;2024-02-21T08:18:26;1.00;;;1.00;;
10523;SDS011;5310;48.638;9.060;2024-02-21T08:20:52;1.10;;;1.10;;
10523;SDS011;5310;48.638;9.060;2024-02-21T08:23:18;1.00;;;1.00;;
10523;SDS011;5310;48.638;9.060;2024-02-21T08:25:44;1.10;;;1.10;;
10523;SDS011;5310;48.638;9.060;2024-02-21T08:28:10;1.00;;;1.00;;
10523;SDS011;5310;48.638;9.060;2024-02-21T08:30:37;1.00;;;1.00;;
10523;SDS011;5310;48.638;9.060;2024-02-21T08:33:03;1.00;;;1.00;;
10523;SDS011;5310;48.638;9.060;2024-02-21T08:35:29;1.10;;;1.10;;
10523;SDS011;5310;48.638;9.060;2024-02-21T08:37:55;1.00;;;1.00;;
10523;SDS011;5310;48.638;9.060;2024-02-21T08:40:21;1.00;;;1.00;;
10523;SDS011;5310;48.638;9.060;2024-02-21T08:42:47;1.10;;;1.10;;
10523;SDS011;5310;48.638;9.060;2024-02-21T08:45:14;1.00;;;1.00;;
10523;SDS011;5310;48.638;9.060;2024-02-21T08:47:40;1.00;;;1.00;;
10523;SDS011;5310;48.638;9.060;2024-02-21T08:50:06;1.00;;;1.00;;
10523;SDS011;5310;48.638;9.060;2024-02-21T08:52:34;1.10;;;1.10;;
10523;SDS011;5310;48.638;9.060;2024-02-21T08:55:00;1.00;;;1.00;;
10523;SDS011;5310;48.638;9.060;2024-02-21T08:57:26;1.00;;;1.00;;
10523;SDS011;5310;48.638;9.060;2024-02-21T08:59:53;1.00;;;1.00;;
10523;SDS011;5310;48.638;9.060;2024-02-21T09:02:19;1.00;;;1.00;;
10523;SDS011;5310;48.638;9.060;2024-02-21T09:04:45;0.90;;;0.90;;
10523;SDS011;5310;48.638;9.060;2024-02-21T09:07:11;1.00;;;1.00;;
10523;SDS011;5310;48.638;9.060;2024-02-21T09:09:37;1.00;;;1.00;;
10523;SDS011;5310;48.638;9.060;2024-02-21T09:12:06;1.00;;;1.00;;
10523;SDS011;5310;48.638;9.060;2024-02-21T09:14:33;1.00;;;1.00;;
10523;SDS011;5310;48.638;9.060;2024-02-21T09:16:59;1.07;;;1.07;;
10523;SDS011;5310;48.638;9.060;2024-02-21T09:19:25;1.00;;;1.00;;
10523;SDS011;5310;48.638;9.060;2024-02-21T09:21:51;1.00;;;1.00;;
10523;SDS011;5310;48.638;9.060;2024-02-21T09:24:17;1.00;;;1.00;;
10523;SDS011;5310;48.638;9.060;2024-02-21T09:26:43;1.00;;;1.00;;
10523;SDS011;5310;48.638;9.060;2024-02-21T09:29:09;1.00;;;1.00;;
10523;SDS011;5310;48.638;9.060;2024-02-21T09:31:35;1.00;;;1.00;;
10523;SDS011;5310;48.638;9.060;2024-02-21T09:34:02;1.00;;;1.00;;
10523;SDS011;5310;48.638;9.060;2024-02-21T09:36:28;1.00;;;1.00;;
10523;SDS011;5310;48.638;9.060;2024-02-21T09:38:54;1.00;;;1.00;;
10523;SDS011;5310;48.638;9.060;2024-02-21T09:41:25;1.00;;;1.00;;
10523;SDS011;5310;48.638;9.060;2024-02-21T09:43:52;0.90;;;0.90;;
10523;SDS011;5310;48.638;9.060;2024-02-21T09:46:19;1.00;;;1.00;;
10523;SDS011;5310;48.638;9.060;2024-02-21T09:51:18;1.00;;;1.00;;
10523;SDS011;5310;48.638;9.060;2024-02-21T09:53:44;0.90;;;0.90;;
10523;SDS011;5310;48.638;9.060;2024-02-21T09:56:11;1.00;;;1.00;;
10523;SDS011;5310;48.638;9.060;2024-02-21T09:58:37;0.97;;;0.97;;
10523;SDS011;5310;48.638;9.060;2024-02-21T10:01:03;1.00;;;1.00;;
10523;SDS011;5310;48.638;9.060;2024-02-21T10:03:31;1.00;;;1.00;;
10523;SDS011;5310;48.638;9.060;2024-02-21T10:05:58;1.00;;;1.00;;
10523;SDS011;5310;48.638;9.060;2024-02-21T10:08:25;1.00;;;1.00;;
10523;SDS011;5310;48.638;9.060;2024-02-21T10:10:51;0.90;;;0.90;;
10523;SDS011;5310;48.638;9.060;2024-02-21T10:13:27;1.00;;;1.00;;
10523;SDS011;5310;48.638;9.060;2024-02-21T10:16:26;1.00;;;1.00;;
10523;SDS011;5310;48.638;9.060;2024-02-21T10:18:46;0.93;;;0.93;;
10523;SDS011;5310;48.638;9.060;2024-02-21T10:21:12;1.00;;;1.00;;
10523;SDS011;5310;48.638;9.060;2024-02-21T10:23:41;1.07;;;1.07;;
10523;SDS011;5310;48.638;9.060;2024-02-21T10:26:08;1.00;;;1.00;;
10523;SDS011;5310;48.638;9.060;2024-02-21T10:28:34;1.00;;;1.00;;
10523;SDS011;5310;48.638;9.060;2024-02-21T10:31:00;1.00;;;1.00;;
10523;SDS011;5310;48.638;9.060;2024-02-21T10:33:26;1.00;;;1.00;;
10523;SDS011;5310;48.638;9.060;2024-02-21T10:35:53;1.00;;;1.00;;
10523;SDS011;5310;48.638;9.060;2024-02-21T10:38:19;1.00;;;1.00;;
10523;SDS011;5310;48.638;9.060;2024-02-21T10:40:45;1.00;;;1.00;;
10523;SDS011;5310;48.638;9.060;2024-02-21T10:43:12;1.00;;;1.00;;
10523;SDS011;5310;48.638;9.060;2024-02-21T10:45:40;1.00;;;1.00;;
10523;SDS011;5310;48.638;9.060;2024-02-21T10:48:13;1.00;;;1.00;;
10523;SDS011;5310;48.638;9.060;2024-02-21T10:51:00;0.97;;;0.97;;
10523;SDS011;5310;48.638;9.060;2024-02-21T10:56:22;1.00;;;1.00;;
10523;SDS011;5310;48.638;9.060;2024-02-21T10:58:55;1.00;;;1.00;;
10523;SDS011;5310;48.638;9.060;2024-02-21T11:01:23;0.90;;;0.90;;
10523;SDS011;5310;48.638;9.060;2024-02-21T11:03:52;1.10;;;1.10;;
10523;SDS011;5310;48.638;9.060;2024-02-21T11:06:19;1.00;;;1.00;;
10523;SDS011;5310;48.638;9.060;2024-02-21T11:08:46;1.00;;;1.00;;
10523;SDS011;5310;48.638;9.060;2024-02-21T11:11:13;0.90;;;0.90;;
10523;SDS011;5310;48.638;9.060;2024-02-21T11:13:42;0.90;;;0.90;;
10523;SDS011;5310;48.638;9.060;2024-02-21T11:16:09;1.00;;;1.00;;
10523;SDS011;5310;48.638;9.060;2024-02-21T11:18:38;0.80;;;0.80;;
10523;SDS011;5310;48.638;9.060;2024-02-21T11:21:04;1.00;;;1.00;;
10523;SDS011;5310;48.638;9.060;2024-02-21T11:23:31;1.00;;;1.00;;
10523;SDS011;5310;48.638;9.060;2024-02-21T11:26:09;0.97;;;0.97;;
10523;SDS011;5310;48.638;9.060;2024-02-21T11:28:36;1.00;;;1.00;;
10523;SDS011;5310;48.638;9.060;2024-02-21T11:31:11;1.00;;;1.00;;
10523;SDS011;5310;48.638;9.060;2024-02-21T11:33:40;0.93;;;0.93;;
10523;SDS011;5310;48.638;9.060;2024-02-21T11:36:07;0.90;;;0.90;;
10523;SDS011;5310;48.638;9.060;2024-02-21T11:38:33;0.90;;;0.90;;
10523;SDS011;5310;48.638;9.060;2024-02-21T11:40:59;1.00;;;1.00;;
10523;SDS011;5310;48.638;9.060;2024-02-21T11:43:25;1.00;;;1.00;;
10523;SDS011;5310;48.638;9.060;2024-02-21T11:45:58;1.00;;;1.00;;
10523;SDS011;5310;48.638;9.060;2024-02-21T11:48:28;0.90;;;0.90;;
10523;SDS011;5310;48.638;9.060;2024-02-21T11:50:55;1.00;;;1.00;;
10523;SDS011;5310;48.638;9.060;2024-02-21T11:53:21;0.90;;;0.90;;
10523;SDS011;5310;48.638;9.060;2024-02-21T11:55:47;0.90;;;0.90;;
10523;SDS011;5310;48.638;9.060;2024-02-21T11:58:13;1.00;;;1.00;;
10523;SDS011;5310;48.638;9.060;2024-02-21T12:00:39;1.00;;;1.00;;
10523;SDS011;5310;48.638;9.060;2024-02-21T12:03:05;0.90;;;0.90;;
10523;SDS011;5310;48.638;9.060;2024-02-21T12:05:31;1.00;;;1.00;;
10523;SDS011;5310;48.638;9.060;2024-02-21T12:07:57;1.00;;;1.00;;
10523;SDS011;5310;48.638;9.060;2024-02-21T12:10:24;1.00;;;1.00;;
10523;SDS011;5310;48.638;9.060;2024-02-21T12:12:52;1.00;;;1.00;;
10523;SDS011;5310;48.638;9.060;2024-02-21T12:15:23;1.00;;;1.00;;
10523;SDS011;5310;48.638;9.060;2024-02-21T12:17:49;1.00;;;1.00;;
10523;SDS011;5310;48.638;9.060;2024-02-21T12:20:16;0.90;;;0.90;;
10523;SDS011;5310;48.638;9.060;2024-02-21T12:22:42;1.00;;;1.00;;
10523;SDS011;5310;48.638;9.060;2024-02-21T12:25:21;1.03;;;1.03;;
10523;SDS011;5310;48.638;9.060;2024-02-21T12:27:48;0.90;;;0.90;;
10523;SDS011;5310;48.638;9.060;2024-02-21T12:30:14;0.90;;;0.90;;
10523;SDS011;5310;48.638;9.060;2024-02-21T12:32:40;1.10;;;1.00;;
10523;SDS011;5310;48.638;9.060;2024-02-21T12:35:07;0.90;;;0.90;;
10523;SDS011;5310;48.638;9.060;2024-02-21T12:37:33;0.97;;;0.97;;
10523;SDS011;5310;48.638;9.060;2024-02-21T12:39:59;0.90;;;0.90;;
10523;SDS011;5310;48.638;9.060;2024-02-21T12:42:25;0.90;;;0.90;;
10523;SDS011;5310;48.638;9.060;2024-02-21T12:44:54;0.90;;;0.90;;
10523;SDS011;5310;48.638;9.060;2024-02-21T12:47:20;0.90;;;0.90;;
10523;SDS011;5310;48.638;9.060;2024-02-21T12:49:48;0.90;;;0.90;;
10523;SDS011;5310;48.638;9.060;2024-02-21T12:52:14;1.00;;;1.00;;
10523;SDS011;5310;48.638;9.060;2024-02-21T12:54:41;0.90;;;0.90;;
10523;SDS011;5310;48.638;9.060;2024-02-21T12:57:07;0.80;;;0.80;;
10523;SDS011;5310;48.638;9.060;2024-02-21T12:59:33;0.90;;;0.90;;
10523;SDS011;5310;48.638;9.060;2024-02-21T13:01:59;0.90;;;0.90;;
10523;SDS011;5310;48.638;9.060;2024-02-21T13:04:25;0.77;;;0.77;;
10523;SDS011;5310;48.638;9.060;2024-02-21T13:06:51;0.90;;;0.90;;
10523;SDS011;5310;48.638;9.060;2024-02-21T13:09:17;0.97;;;0.97;;
10523;SDS011;5310;48.638;9.060;2024-02-21T13:11:43;1.00;;;1.00;;
10523;SDS011;5310;48.638;9.060;2024-02-21T13:14:11;0.90;;;0.90;;
10523;SDS011;5310;48.638;9.060;2024-02-21T13:16:37;0.90;;;0.90;;
10523;SDS011;5310;48.638;9.060;2024-02-21T13:19:06;0.90;;;0.90;;
10523;SDS011;5310;48.638;9.060;2024-02-21T13:21:35;1.00;;;1.00;;
10523;SDS011;5310;48.638;9.060;2024-02-21T13:24:01;0.90;;;0.90;;
10523;SDS011;5310;48.638;9.060;2024-02-21T13:26:27;0.90;;;0.90;;
10523;SDS011;5310;48.638;9.060;2024-02-21T13:28:53;1.00;;;1.00;;
10523;SDS011;5310;48.638;9.060;2024-02-21T13:31:20;1.00;;;1.00;;
10523;SDS011;5310;48.638;9.060;2024-02-21T13:33:46;0.80;;;0.80;;
10523;SDS011;5310;48.638;9.060;2024-02-21T13:36:12;1.00;;;1.00;;
10523;SDS011;5310;48.638;9.060;2024-02-21T13:38:39;0.90;;;0.90;;
10523;SDS011;5310;48.638;9.060;2024-02-21T13:41:05;0.80;;;0.80;;
10523;SDS011;5310;48.638;9.060;2024-02-21T13:43:32;1.00;;;1.00;;
10523;SDS011;5310;48.638;9.060;2024-02-21T13:45:58;0.90;;;0.90;;
10523;SDS011;5310;48.638;9.060;2024-02-21T13:48:25;1.00;;;1.00;;
10523;SDS011;5310;48.638;9.060;2024-02-21T13:50:52;1.00;;;1.00;;
10523;SDS011;5310;48.638;9.060;2024-02-21T13:53:18;0.90;;;0.90;;
10523;SDS011;5310;48.638;9.060;2024-02-21T13:55:44;0.90;;;0.90;;
10523;SDS011;5310;48.638;9.060;2024-02-21T13:58:10;0.90;;;0.90;;
10523;SDS011;5310;48.638;9.060;2024-02-21T14:00:36;0.90;;;0.90;;
10523;SDS011;5310;48.638;9.060;2024-02-21T14:03:02;0.90;;;0.90;;
10523;SDS011;5310;48.638;9.060;2024-02-21T14:05:28;0.80;;;0.80;;
10523;SDS011;5310;48.638;9.060;2024-02-21T14:07:54;0.93;;;0.93;;
10523;SDS011;5310;48.638;9.060;2024-02-21T14:10:21;0.90;;;0.90;;
10523;SDS011;5310;48.638;9.060;2024-02-21T14:12:46;1.00;;;1.00;;
10523;SDS011;5310;48.638;9.060;2024-02-21T14:15:13;0.90;;;0.90;;
10523;SDS011;5310;48.638;9.060;2024-02-21T14:17:39;1.00;;;1.00;;
10523;SDS011;5310;48.638;9.060;2024-02-21T14:20:06;0.87;;;0.87;;
10523;SDS011;5310;48.638;9.060;2024-02-21T14:22:33;1.20;;;1.10;;
10523;SDS011;5310;48.638;9.060;2024-02-21T14:24:59;0.90;;;0.90;;
10523;SDS011;5310;48.638;9.060;2024-02-21T14:27:25;0.90;;;0.90;;
10523;SDS011;5310;48.638;9.060;2024-02-21T14:29:51;0.90;;;0.90;;
10523;SDS011;5310;48.638;9.060;2024-02-21T14:32:18;1.00;;;1.00;;
10523;SDS011;5310;48.638;9.060;2024-02-21T14:34:45;0.90;;;0.90;;
10523;SDS011;5310;48.638;9.060;2024-02-21T14:37:11;1.00;;;1.00;;
10523;SDS011;5310;48.638;9.060;2024-02-21T14:39:37;1.00;;;1.00;;
10523;SDS011;5310;48.638;9.060;2024-02-21T14:42:03;0.90;;;0.90;;
10523;SDS011;5310;48.638;9.060;2024-02-21T14:44:29;0.90;;;0.90;;
10523;SDS011;5310;48.638;9.060;2024-02-21T14:46:55;0.80;;;0.80;;
10523;SDS011;5310;48.638;9.060;2024-02-21T14:49:21;0.80;;;0.80;;
10523;SDS011;5310;48.638;9.060;2024-02-21T14:51:47;0.93;;;0.93;;
10523;SDS011;5310;48.638;9.060;2024-02-21T14:54:13;0.90;;;0.90;;
10523;SDS011;5310;48.638;9.060;2024-02-21T14:56:39;0.80;;;0.80;;
10523;SDS011;5310;48.638;9.060;2024-02-21T14:59:05;0.90;;;0.90;;
10523;SDS011;5310;48.638;9.060;2024-02-21T15:01:35;0.80;;;0.80;;